sensor_id;sensor_type;location;lat;lon;timestamp;P1;durP1;ratioP1;P2;durP2;ratioP2
26578;SDS011;14227;47.674;19.320;2023-06-04T00:00:01;31.48;;;12.68;;
26578;SDS011;14227;47.674;19.320;2023-06-04T00:02:28;26.23;;;11.85;;
26578;SDS011;14227;47.674;19.320;2023-06-04T00:04:54;24.77;;;10.90;;
26578;SDS011;14227;47.674;19.320;2023-06-04T00:07:20;22.30;;;9.18;;
26578;SDS011;14227;47.674;19.320;2023-06-04T00:09:45;25.95;;;9.13;;
26578;SDS011;14227;47.674;19.320;2023-06-04T00:12:12;14.25;;;6.53;;
26578;SDS011;14227;47.674;19.320;2023-06-04T00:14:38;15.88;;;6.13;;
26578;SDS011;14227;47.674;19.320;2023-06-04T00:17:03;13.15;;;5.07;;
26578;SDS011;14227;47.674;19.320;2023-06-04T00:19:29;30.65;;;7.82;;
26578;SDS011;14227;47.674;19.320;2023-06-04T00:21:55;27.20;;;7.47;;
26578;SDS011;14227;47.674;19.320;2023-06-04T00:24:21;26.83;;;8.02;;
26578;SDS011;14227;47.674;19.320;2023-06-04T00:26:47;16.50;;;7.32;;
26578;SDS011;14227;47.674;19.320;2023-06-04T00:29:12;31.65;;;8.35;;
26578;SDS011;14227;47.674;19.320;2023-06-04T00:31:38;25.40;;;7.53;;
26578;SDS011;14227;47.674;19.320;2023-06-04T00:34:04;28.83;;;8.52;;
26578;SDS011;14227;47.674;19.320;2023-06-04T00:36:30;18.80;;;6.65;;
26578;SDS011;14227;47.674;19.320;2023-06-04T00:38:56;11.65;;;4.57;;
26578;SDS011;14227;47.674;19.320;2023-06-04T00:41:21;13.82;;;5.75;;
26578;SDS011;14227;47.674;19.320;2023-06-04T00:43:47;12.95;;;4.70;;
26578;SDS011;14227;47.674;19.320;2023-06-04T00:48:50;11.90;;;4.95;;
26578;SDS011;14227;47.674;19.320;2023-06-04T00:51:17;13.75;;;5.05;;
26578;SDS011;14227;47.674;19.320;2023-06-04T00:53:43;30.23;;;5.40;;
26578;SDS011;14227;47.674;19.320;2023-06-04T00:56:09;45.80;;;4.97;;
26578;SDS011;14227;47.674;19.320;2023-06-04T00:58:38;15.40;;;5.18;;
26578;SDS011;14227;47.674;19.320;2023-06-04T01:01:05;12.02;;;4.80;;
26578;SDS011;14227;47.674;19.320;2023-06-04T01:03:38;13.48;;;4.97;;
26578;SDS011;14227;47.674;19.320;2023-06-04T01:06:27;18.63;;;5.05;;
26578;SDS011;14227;47.674;19.320;2023-06-04T01:09:04;9.45;;;5.10;;
26578;SDS011;14227;47.674;19.320;2023-06-04T01:11:34;18.88;;;5.38;;
26578;SDS011;14227;47.674;19.320;2023-06-04T01:14:01;13.77;;;4.90;;
26578;SDS011;14227;47.674;19.320;2023-06-04T01:16:28;11.10;;;4.88;;
26578;SDS011;14227;47.674;19.320;2023-06-04T01:18:58;9.02;;;4.97;;
26578;SDS011;14227;47.674;19.320;2023-06-04T01:21:28;6.47;;;4.20;;
26578;SDS011;14227;47.674;19.320;2023-06-04T01:24:00;9.27;;;4.57;;
26578;SDS011;14227;47.674;19.320;2023-06-04T01:26:29;9.00;;;4.30;;
26578;SDS011;14227;47.674;19.320;2023-06-04T01:28:57;8.00;;;4.18;;
26578;SDS011;14227;47.674;19.320;2023-06-04T01:31:24;10.07;;;4.28;;
26578;SDS011;14227;47.674;19.320;2023-06-04T01:33:53;10.57;;;4.95;;
26578;SDS011;14227;47.674;19.320;2023-06-04T01:36:23;7.57;;;4.27;;
26578;SDS011;14227;47.674;19.320;2023-06-04T01:38:50;14.23;;;5.70;;
26578;SDS011;14227;47.674;19.320;2023-06-04T01:41:16;15.85;;;5.70;;
26578;SDS011;14227;47.674;19.320;2023-06-04T01:43:41;14.88;;;4.88;;
26578;SDS011;14227;47.674;19.320;2023-06-04T01:46:07;10.82;;;5.82;;
26578;SDS011;14227;47.674;19.320;2023-06-04T01:48:33;14.23;;;6.05;;
26578;SDS011;14227;47.674;19.320;2023-06-04T01:50:58;22.65;;;8.45;;
26578;SDS011;14227;47.674;19.320;2023-06-04T01:53:25;14.75;;;7.95;;
26578;SDS011;14227;47.674;19.320;2023-06-04T01:55:51;19.02;;;8.15;;
26578;SDS011;14227;47.674;19.320;2023-06-04T01:58:17;15.30;;;7.72;;
26578;SDS011;14227;47.674;19.320;2023-06-04T02:00:48;18.60;;;8.65;;
26578;SDS011;14227;47.674;19.320;2023-06-04T02:03:15;19.83;;;8.50;;
26578;SDS011;14227;47.674;19.320;2023-06-04T02:05:41;21.52;;;7.10;;
26578;SDS011;14227;47.674;19.320;2023-06-04T02:08:09;17.35;;;7.25;;
26578;SDS011;14227;47.674;19.320;2023-06-04T02:10:36;14.80;;;6.97;;
26578;SDS011;14227;47.674;19.320;2023-06-04T02:13:02;28.38;;;8.73;;
26578;SDS011;14227;47.674;19.320;2023-06-04T02:15:29;26.02;;;7.75;;
26578;SDS011;14227;47.674;19.320;2023-06-04T02:17:59;16.35;;;6.80;;
26578;SDS011;14227;47.674;19.320;2023-06-04T02:20:41;23.27;;;8.10;;
26578;SDS011;14227;47.674;19.320;2023-06-04T02:23:10;13.98;;;6.25;;
26578;SDS011;14227;47.674;19.320;2023-06-04T02:25:36;16.48;;;6.45;;
26578;SDS011;14227;47.674;19.320;2023-06-04T02:28:02;16.13;;;7.03;;
26578;SDS011;14227;47.674;19.320;2023-06-04T02:30:27;19.45;;;7.55;;
26578;SDS011;14227;47.674;19.320;2023-06-04T02:32:53;23.85;;;7.80;;
26578;SDS011;14227;47.674;19.320;2023-06-04T02:35:20;16.77;;;7.90;;
26578;SDS011;14227;47.674;19.320;2023-06-04T02:37:48;13.18;;;7.97;;
26578;SDS011;14227;47.674;19.320;2023-06-04T02:40:14;18.90;;;8.68;;
26578;SDS011;14227;47.674;19.320;2023-06-04T02:42:40;19.60;;;8.07;;
26578;SDS011;14227;47.674;19.320;2023-06-04T02:45:06;17.98;;;8.23;;
26578;SDS011;14227;47.674;19.320;2023-06-04T02:47:32;13.15;;;7.10;;
26578;SDS011;14227;47.674;19.320;2023-06-04T02:49:58;16.63;;;6.93;;
26578;SDS011;14227;47.674;19.320;2023-06-04T02:52:23;13.98;;;6.82;;
26578;SDS011;14227;47.674;19.320;2023-06-04T02:54:50;12.43;;;6.55;;
26578;SDS011;14227;47.674;19.320;2023-06-04T02:57:16;16.80;;;6.53;;
26578;SDS011;14227;47.674;19.320;2023-06-04T02:59:42;14.05;;;6.53;;
26578;SDS011;14227;47.674;19.320;2023-06-04T03:02:07;16.20;;;7.22;;
26578;SDS011;14227;47.674;19.320;2023-06-04T03:04:35;16.48;;;7.10;;
26578;SDS011;14227;47.674;19.320;2023-06-04T03:07:01;9.88;;;6.07;;
26578;SDS011;14227;47.674;19.320;2023-06-04T03:09:28;13.48;;;6.10;;
26578;SDS011;14227;47.674;19.320;2023-06-04T03:11:56;16.10;;;6.65;;
26578;SDS011;14227;47.674;19.320;2023-06-04T03:14:24;11.98;;;6.80;;
26578;SDS011;14227;47.674;19.320;2023-06-04T03:17:00;13.15;;;6.45;;
26578;SDS011;14227;47.674;19.320;2023-06-04T03:19:33;14.45;;;6.97;;
26578;SDS011;14227;47.674;19.320;2023-06-04T03:22:03;17.48;;;7.15;;
26578;SDS011;14227;47.674;19.320;2023-06-04T03:24:33;20.45;;;7.50;;
26578;SDS011;14227;47.674;19.320;2023-06-04T03:27:01;20.63;;;7.05;;
26578;SDS011;14227;47.674;19.320;2023-06-04T03:29:27;12.13;;;6.55;;
26578;SDS011;14227;47.674;19.320;2023-06-04T03:31:53;7.93;;;5.97;;
26578;SDS011;14227;47.674;19.320;2023-06-04T03:34:19;12.00;;;6.47;;
26578;SDS011;14227;47.674;19.320;2023-06-04T03:36:45;15.10;;;5.95;;
26578;SDS011;14227;47.674;19.320;2023-06-04T03:39:11;10.55;;;6.03;;
26578;SDS011;14227;47.674;19.320;2023-06-04T03:41:36;14.88;;;6.50;;
26578;SDS011;14227;47.674;19.320;2023-06-04T03:44:02;9.43;;;5.63;;
26578;SDS011;14227;47.674;19.320;2023-06-04T03:46:28;11.50;;;5.65;;
26578;SDS011;14227;47.674;19.320;2023-06-04T03:48:56;12.10;;;5.53;;
26578;SDS011;14227;47.674;19.320;2023-06-04T03:51:22;16.42;;;6.13;;
26578;SDS011;14227;47.674;19.320;2023-06-04T03:53:48;13.73;;;5.85;;
26578;SDS011;14227;47.674;19.320;2023-06-04T03:56:14;18.73;;;6.30;;
26578;SDS011;14227;47.674;19.320;2023-06-04T03:58:39;12.82;;;6.00;;
26578;SDS011;14227;47.674;19.320;2023-06-04T04:01:06;15.48;;;5.50;;
26578;SDS011;14227;47.674;19.320;2023-06-04T04:03:33;15.40;;;5.57;;
26578;SDS011;14227;47.674;19.320;2023-06-04T04:06:00;10.88;;;5.57;;
26578;SDS011;14227;47.674;19.320;2023-06-04T04:08:28;15.48;;;5.82;;
26578;SDS011;14227;47.674;19.320;2023-06-04T04:10:56;12.80;;;5.40;;
26578;SDS011;14227;47.674;19.320;2023-06-04T04:13:23;11.23;;;5.25;;
26578;SDS011;14227;47.674;19.320;2023-06-04T04:15:48;8.95;;;4.97;;
26578;SDS011;14227;47.674;19.320;2023-06-04T04:18:21;8.63;;;4.40;;
26578;SDS011;14227;47.674;19.320;2023-06-04T04:20:47;9.13;;;4.93;;
26578;SDS011;14227;47.674;19.320;2023-06-04T04:23:13;10.40;;;4.70;;
26578;SDS011;14227;47.674;19.320;2023-06-04T04:25:39;8.40;;;4.68;;
26578;SDS011;14227;47.674;19.320;2023-06-04T04:28:06;9.52;;;4.90;;
26578;SDS011;14227;47.674;19.320;2023-06-04T04:30:35;14.25;;;4.63;;
26578;SDS011;14227;47.674;19.320;2023-06-04T04:33:01;10.95;;;3.97;;
26578;SDS011;14227;47.674;19.320;2023-06-04T04:35:27;13.68;;;4.60;;
26578;SDS011;14227;47.674;19.320;2023-06-04T04:37:54;13.13;;;4.55;;
26578;SDS011;14227;47.674;19.320;2023-06-04T04:40:20;12.70;;;4.05;;
26578;SDS011;14227;47.674;19.320;2023-06-04T04:42:46;10.18;;;4.05;;
26578;SDS011;14227;47.674;19.320;2023-06-04T04:45:11;13.05;;;4.15;;
26578;SDS011;14227;47.674;19.320;2023-06-04T04:47:37;7.40;;;4.00;;
26578;SDS011;14227;47.674;19.320;2023-06-04T04:50:03;7.38;;;4.03;;
26578;SDS011;14227;47.674;19.320;2023-06-04T04:52:30;9.82;;;4.55;;
26578;SDS011;14227;47.674;19.320;2023-06-04T04:54:55;10.23;;;4.28;;
26578;SDS011;14227;47.674;19.320;2023-06-04T04:57:22;11.90;;;4.18;;
26578;SDS011;14227;47.674;19.320;2023-06-04T04:59:48;9.43;;;3.80;;
26578;SDS011;14227;47.674;19.320;2023-06-04T05:02:15;7.82;;;3.38;;
26578;SDS011;14227;47.674;19.320;2023-06-04T05:04:40;9.40;;;3.70;;
26578;SDS011;14227;47.674;19.320;2023-06-04T05:07:06;7.40;;;3.80;;
26578;SDS011;14227;47.674;19.320;2023-06-04T05:09:32;10.00;;;3.72;;
26578;SDS011;14227;47.674;19.320;2023-06-04T05:11:58;10.20;;;3.70;;
26578;SDS011;14227;47.674;19.320;2023-06-04T05:14:23;11.13;;;3.35;;
26578;SDS011;14227;47.674;19.320;2023-06-04T05:16:49;13.25;;;3.75;;
26578;SDS011;14227;47.674;19.320;2023-06-04T05:19:15;8.63;;;2.88;;
26578;SDS011;14227;47.674;19.320;2023-06-04T05:21:41;6.47;;;2.90;;
26578;SDS011;14227;47.674;19.320;2023-06-04T05:24:08;12.90;;;2.83;;
26578;SDS011;14227;47.674;19.320;2023-06-04T05:26:34;8.82;;;3.10;;
26578;SDS011;14227;47.674;19.320;2023-06-04T05:29:01;9.68;;;4.13;;
26578;SDS011;14227;47.674;19.320;2023-06-04T05:31:29;4.68;;;1.85;;
26578;SDS011;14227;47.674;19.320;2023-06-04T05:33:58;2.75;;;1.90;;
26578;SDS011;14227;47.674;19.320;2023-06-04T05:36:26;4.72;;;2.03;;
26578;SDS011;14227;47.674;19.320;2023-06-04T05:38:54;27.80;;;4.07;;
26578;SDS011;14227;47.674;19.320;2023-06-04T05:41:26;13.57;;;2.58;;
26578;SDS011;14227;47.674;19.320;2023-06-04T05:43:52;5.40;;;2.30;;
26578;SDS011;14227;47.674;19.320;2023-06-04T05:46:18;7.75;;;2.42;;
26578;SDS011;14227;47.674;19.320;2023-06-04T05:48:44;6.40;;;2.38;;
26578;SDS011;14227;47.674;19.320;2023-06-04T05:51:12;5.40;;;2.03;;
26578;SDS011;14227;47.674;19.320;2023-06-04T05:53:38;6.07;;;2.13;;
26578;SDS011;14227;47.674;19.320;2023-06-04T05:56:04;7.50;;;2.50;;
26578;SDS011;14227;47.674;19.320;2023-06-04T05:58:32;8.10;;;2.13;;
26578;SDS011;14227;47.674;19.320;2023-06-04T06:00:58;4.03;;;2.00;;
26578;SDS011;14227;47.674;19.320;2023-06-04T06:03:24;7.53;;;1.90;;
26578;SDS011;14227;47.674;19.320;2023-06-04T06:05:49;5.35;;;1.83;;
26578;SDS011;14227;47.674;19.320;2023-06-04T06:08:15;6.93;;;1.88;;
26578;SDS011;14227;47.674;19.320;2023-06-04T06:10:41;2.63;;;1.90;;
26578;SDS011;14227;47.674;19.320;2023-06-04T06:13:07;5.78;;;2.60;;
26578;SDS011;14227;47.674;19.320;2023-06-04T06:15:32;6.68;;;1.90;;
26578;SDS011;14227;47.674;19.320;2023-06-04T06:17:58;4.60;;;2.00;;
26578;SDS011;14227;47.674;19.320;2023-06-04T06:20:24;4.32;;;2.40;;
26578;SDS011;14227;47.674;19.320;2023-06-04T06:22:50;2.47;;;1.73;;
26578;SDS011;14227;47.674;19.320;2023-06-04T06:25:16;4.78;;;1.95;;
26578;SDS011;14227;47.674;19.320;2023-06-04T06:27:42;4.43;;;1.67;;
26578;SDS011;14227;47.674;19.320;2023-06-04T06:30:08;4.07;;;1.60;;
26578;SDS011;14227;47.674;19.320;2023-06-04T06:32:34;5.20;;;2.05;;
26578;SDS011;14227;47.674;19.320;2023-06-04T06:35:00;4.75;;;1.65;;
26578;SDS011;14227;47.674;19.320;2023-06-04T06:37:27;3.38;;;2.03;;
26578;SDS011;14227;47.674;19.320;2023-06-04T06:39:52;7.45;;;1.50;;
26578;SDS011;14227;47.674;19.320;2023-06-04T06:42:18;2.60;;;1.40;;
26578;SDS011;14227;47.674;19.320;2023-06-04T06:44:44;4.28;;;1.67;;
26578;SDS011;14227;47.674;19.320;2023-06-04T06:47:10;3.20;;;1.85;;
26578;SDS011;14227;47.674;19.320;2023-06-04T06:49:42;3.25;;;1.65;;
26578;SDS011;14227;47.674;19.320;2023-06-04T06:52:08;5.55;;;1.90;;
26578;SDS011;14227;47.674;19.320;2023-06-04T06:54:35;4.25;;;1.60;;
26578;SDS011;14227;47.674;19.320;2023-06-04T06:57:00;4.28;;;1.40;;
26578;SDS011;14227;47.674;19.320;2023-06-04T06:59:27;4.28;;;1.60;;
26578;SDS011;14227;47.674;19.320;2023-06-04T07:01:53;6.63;;;1.58;;
26578;SDS011;14227;47.674;19.320;2023-06-04T07:04:19;5.20;;;1.42;;
26578;SDS011;14227;47.674;19.320;2023-06-04T07:06:45;6.90;;;1.60;;
26578;SDS011;14227;47.674;19.320;2023-06-04T07:09:11;6.53;;;2.08;;
26578;SDS011;14227;47.674;19.320;2023-06-04T07:11:38;6.75;;;1.75;;
26578;SDS011;14227;47.674;19.320;2023-06-04T07:14:03;3.92;;;1.95;;
26578;SDS011;14227;47.674;19.320;2023-06-04T07:16:29;5.25;;;1.85;;
26578;SDS011;14227;47.674;19.320;2023-06-04T07:18:55;5.40;;;1.98;;
26578;SDS011;14227;47.674;19.320;2023-06-04T07:21:21;5.60;;;1.90;;
26578;SDS011;14227;47.674;19.320;2023-06-04T07:23:49;3.85;;;1.80;;
26578;SDS011;14227;47.674;19.320;2023-06-04T07:26:16;12.95;;;2.00;;
26578;SDS011;14227;47.674;19.320;2023-06-04T07:28:43;7.25;;;1.70;;
26578;SDS011;14227;47.674;19.320;2023-06-04T07:31:09;3.72;;;1.90;;
26578;SDS011;14227;47.674;19.320;2023-06-04T07:33:34;3.13;;;1.80;;
26578;SDS011;14227;47.674;19.320;2023-06-04T07:36:07;6.40;;;2.03;;
26578;SDS011;14227;47.674;19.320;2023-06-04T07:38:37;8.05;;;1.98;;
26578;SDS011;14227;47.674;19.320;2023-06-04T07:41:03;7.07;;;1.88;;
26578;SDS011;14227;47.674;19.320;2023-06-04T07:43:29;3.00;;;1.60;;
26578;SDS011;14227;47.674;19.320;2023-06-04T07:45:54;4.20;;;1.92;;
26578;SDS011;14227;47.674;19.320;2023-06-04T07:48:20;2.72;;;1.50;;
26578;SDS011;14227;47.674;19.320;2023-06-04T07:50:46;4.03;;;1.70;;
26578;SDS011;14227;47.674;19.320;2023-06-04T07:53:11;3.80;;;1.88;;
26578;SDS011;14227;47.674;19.320;2023-06-04T07:55:37;4.15;;;1.75;;
26578;SDS011;14227;47.674;19.320;2023-06-04T07:58:03;7.57;;;2.03;;
26578;SDS011;14227;47.674;19.320;2023-06-04T08:00:29;5.68;;;1.92;;
26578;SDS011;14227;47.674;19.320;2023-06-04T08:02:56;4.45;;;1.70;;
26578;SDS011;14227;47.674;19.320;2023-06-04T08:05:22;5.60;;;1.50;;
26578;SDS011;14227;47.674;19.320;2023-06-04T08:07:48;4.55;;;1.40;;
26578;SDS011;14227;47.674;19.320;2023-06-04T08:10:13;3.00;;;1.88;;
26578;SDS011;14227;47.674;19.320;2023-06-04T08:12:39;2.60;;;1.80;;
26578;SDS011;14227;47.674;19.320;2023-06-04T08:15:05;6.35;;;1.60;;
26578;SDS011;14227;47.674;19.320;2023-06-04T08:17:32;3.25;;;1.65;;
26578;SDS011;14227;47.674;19.320;2023-06-04T08:19:58;4.97;;;1.60;;
26578;SDS011;14227;47.674;19.320;2023-06-04T08:22:23;2.88;;;1.70;;
26578;SDS011;14227;47.674;19.320;2023-06-04T08:24:49;3.00;;;1.50;;
26578;SDS011;14227;47.674;19.320;2023-06-04T08:27:15;4.78;;;1.40;;
26578;SDS011;14227;47.674;19.320;2023-06-04T08:29:42;2.53;;;1.65;;
26578;SDS011;14227;47.674;19.320;2023-06-04T08:32:08;7.70;;;2.03;;
26578;SDS011;14227;47.674;19.320;2023-06-04T08:34:34;4.57;;;1.63;;
26578;SDS011;14227;47.674;19.320;2023-06-04T08:37:00;4.45;;;1.88;;
26578;SDS011;14227;47.674;19.320;2023-06-04T08:39:26;7.95;;;1.80;;
26578;SDS011;14227;47.674;19.320;2023-06-04T08:41:52;12.43;;;2.03;;
26578;SDS011;14227;47.674;19.320;2023-06-04T08:44:21;6.70;;;2.10;;
26578;SDS011;14227;47.674;19.320;2023-06-04T08:46:50;3.97;;;1.75;;
26578;SDS011;14227;47.674;19.320;2023-06-04T08:49:18;7.28;;;2.08;;
26578;SDS011;14227;47.674;19.320;2023-06-04T08:51:46;6.90;;;1.58;;
26578;SDS011;14227;47.674;19.320;2023-06-04T08:54:12;4.32;;;1.65;;
26578;SDS011;14227;47.674;19.320;2023-06-04T08:56:38;4.10;;;1.90;;
26578;SDS011;14227;47.674;19.320;2023-06-04T08:59:04;7.65;;;1.90;;
26578;SDS011;14227;47.674;19.320;2023-06-04T09:01:32;4.18;;;1.70;;
26578;SDS011;14227;47.674;19.320;2023-06-04T09:04:04;3.90;;;1.70;;
26578;SDS011;14227;47.674;19.320;2023-06-04T09:06:31;3.40;;;1.80;;
26578;SDS011;14227;47.674;19.320;2023-06-04T09:08:58;6.60;;;1.75;;
26578;SDS011;14227;47.674;19.320;2023-06-04T09:11:49;4.75;;;1.80;;
26578;SDS011;14227;47.674;19.320;2023-06-04T09:14:17;5.32;;;1.55;;
26578;SDS011;14227;47.674;19.320;2023-06-04T09:16:47;2.63;;;1.60;;
26578;SDS011;14227;47.674;19.320;2023-06-04T09:19:14;2.65;;;1.70;;
26578;SDS011;14227;47.674;19.320;2023-06-04T09:21:54;3.78;;;1.70;;
26578;SDS011;14227;47.674;19.320;2023-06-04T09:24:21;6.10;;;1.65;;
26578;SDS011;14227;47.674;19.320;2023-06-04T09:26:48;7.10;;;1.83;;
26578;SDS011;14227;47.674;19.320;2023-06-04T09:29:15;6.03;;;1.67;;
26578;SDS011;14227;47.674;19.320;2023-06-04T09:31:41;2.85;;;1.50;;
26578;SDS011;14227;47.674;19.320;2023-06-04T09:34:11;11.57;;;2.15;;
26578;SDS011;14227;47.674;19.320;2023-06-04T09:36:37;6.05;;;2.20;;
26578;SDS011;14227;47.674;19.320;2023-06-04T09:39:04;3.58;;;1.50;;
26578;SDS011;14227;47.674;19.320;2023-06-04T09:41:42;4.47;;;1.80;;
26578;SDS011;14227;47.674;19.320;2023-06-04T09:44:08;5.38;;;1.48;;
26578;SDS011;14227;47.674;19.320;2023-06-04T09:46:37;10.77;;;1.83;;
26578;SDS011;14227;47.674;19.320;2023-06-04T09:49:03;5.90;;;2.10;;
26578;SDS011;14227;47.674;19.320;2023-06-04T09:51:30;5.20;;;2.00;;
26578;SDS011;14227;47.674;19.320;2023-06-04T09:53:57;6.97;;;2.10;;
26578;SDS011;14227;47.674;19.320;2023-06-04T09:56:24;4.10;;;1.80;;
26578;SDS011;14227;47.674;19.320;2023-06-04T09:58:58;7.90;;;2.03;;
26578;SDS011;14227;47.674;19.320;2023-06-04T10:01:28;4.82;;;2.35;;
26578;SDS011;14227;47.674;19.320;2023-06-04T10:03:54;4.85;;;2.20;;
26578;SDS011;14227;47.674;19.320;2023-06-04T10:06:27;4.47;;;1.65;;
26578;SDS011;14227;47.674;19.320;2023-06-04T10:08:58;6.38;;;1.92;;
26578;SDS011;14227;47.674;19.320;2023-06-04T10:11:31;4.18;;;1.65;;
26578;SDS011;14227;47.674;19.320;2023-06-04T10:14:15;5.63;;;2.17;;
26578;SDS011;14227;47.674;19.320;2023-06-04T10:16:46;5.50;;;2.03;;
26578;SDS011;14227;47.674;19.320;2023-06-04T10:19:13;4.85;;;2.00;;
26578;SDS011;14227;47.674;19.320;2023-06-04T10:21:40;6.63;;;2.22;;
26578;SDS011;14227;47.674;19.320;2023-06-04T10:24:07;6.90;;;2.33;;
26578;SDS011;14227;47.674;19.320;2023-06-04T10:26:33;7.43;;;2.20;;
26578;SDS011;14227;47.674;19.320;2023-06-04T10:29:00;8.40;;;2.45;;
26578;SDS011;14227;47.674;19.320;2023-06-04T10:31:27;6.80;;;2.03;;
26578;SDS011;14227;47.674;19.320;2023-06-04T10:33:54;4.05;;;1.95;;
26578;SDS011;14227;47.674;19.320;2023-06-04T10:36:21;4.80;;;2.00;;
26578;SDS011;14227;47.674;19.320;2023-06-04T10:38:54;9.63;;;2.13;;
26578;SDS011;14227;47.674;19.320;2023-06-04T10:41:20;4.72;;;1.58;;
26578;SDS011;14227;47.674;19.320;2023-06-04T10:43:48;8.63;;;2.35;;
26578;SDS011;14227;47.674;19.320;2023-06-04T10:46:15;10.75;;;2.20;;
26578;SDS011;14227;47.674;19.320;2023-06-04T10:51:15;5.70;;;1.90;;
26578;SDS011;14227;47.674;19.320;2023-06-04T10:53:41;18.17;;;2.28;;
26578;SDS011;14227;47.674;19.320;2023-06-04T10:56:07;15.85;;;2.05;;
26578;SDS011;14227;47.674;19.320;2023-06-04T10:58:33;6.28;;;2.10;;
26578;SDS011;14227;47.674;19.320;2023-06-04T11:01:00;6.20;;;2.03;;
26578;SDS011;14227;47.674;19.320;2023-06-04T11:03:35;3.33;;;2.03;;
26578;SDS011;14227;47.674;19.320;2023-06-04T11:06:02;7.53;;;2.40;;
26578;SDS011;14227;47.674;19.320;2023-06-04T11:08:39;9.38;;;2.33;;
26578;SDS011;14227;47.674;19.320;2023-06-04T11:11:10;8.98;;;2.20;;
26578;SDS011;14227;47.674;19.320;2023-06-04T11:13:40;29.58;;;3.38;;
26578;SDS011;14227;47.674;19.320;2023-06-04T11:16:19;4.78;;;2.50;;
26578;SDS011;14227;47.674;19.320;2023-06-04T11:18:55;3.85;;;1.45;;
26578;SDS011;14227;47.674;19.320;2023-06-04T11:21:21;4.40;;;2.05;;
26578;SDS011;14227;47.674;19.320;2023-06-04T11:23:47;9.27;;;4.95;;
26578;SDS011;14227;47.674;19.320;2023-06-04T11:26:13;7.07;;;2.05;;
26578;SDS011;14227;47.674;19.320;2023-06-04T11:28:39;4.40;;;2.08;;
26578;SDS011;14227;47.674;19.320;2023-06-04T11:31:06;4.43;;;2.13;;
26578;SDS011;14227;47.674;19.320;2023-06-04T11:33:43;11.35;;;1.83;;
26578;SDS011;14227;47.674;19.320;2023-06-04T11:36:09;4.80;;;1.83;;
26578;SDS011;14227;47.674;19.320;2023-06-04T11:38:35;9.82;;;2.17;;
26578;SDS011;14227;47.674;19.320;2023-06-04T11:41:01;4.35;;;1.92;;
26578;SDS011;14227;47.674;19.320;2023-06-04T11:43:29;6.30;;;2.03;;
26578;SDS011;14227;47.674;19.320;2023-06-04T11:45:57;6.35;;;2.20;;
26578;SDS011;14227;47.674;19.320;2023-06-04T11:48:23;4.32;;;1.83;;
26578;SDS011;14227;47.674;19.320;2023-06-04T11:50:49;4.82;;;2.08;;
26578;SDS011;14227;47.674;19.320;2023-06-04T11:53:15;3.83;;;1.63;;
26578;SDS011;14227;47.674;19.320;2023-06-04T11:55:40;4.65;;;1.90;;
26578;SDS011;14227;47.674;19.320;2023-06-04T11:58:07;12.52;;;2.22;;
26578;SDS011;14227;47.674;19.320;2023-06-04T12:00:33;4.95;;;2.45;;
26578;SDS011;14227;47.674;19.320;2023-06-04T12:02:59;8.32;;;2.38;;
26578;SDS011;14227;47.674;19.320;2023-06-04T12:05:31;7.90;;;2.25;;
26578;SDS011;14227;47.674;19.320;2023-06-04T12:08:13;3.10;;;2.20;;
26578;SDS011;14227;47.674;19.320;2023-06-04T12:10:40;4.57;;;1.92;;
26578;SDS011;14227;47.674;19.320;2023-06-04T12:13:07;7.47;;;2.20;;
26578;SDS011;14227;47.674;19.320;2023-06-04T12:15:33;4.35;;;2.17;;
26578;SDS011;14227;47.674;19.320;2023-06-04T12:17:59;4.82;;;2.00;;
26578;SDS011;14227;47.674;19.320;2023-06-04T12:20:40;5.25;;;2.92;;
26578;SDS011;14227;47.674;19.320;2023-06-04T12:23:18;9.27;;;2.63;;
26578;SDS011;14227;47.674;19.320;2023-06-04T12:25:49;10.65;;;2.65;;
26578;SDS011;14227;47.674;19.320;2023-06-04T12:28:19;5.68;;;2.20;;
26578;SDS011;14227;47.674;19.320;2023-06-04T12:30:45;8.68;;;2.20;;
26578;SDS011;14227;47.674;19.320;2023-06-04T12:33:11;7.35;;;2.13;;
26578;SDS011;14227;47.674;19.320;2023-06-04T12:35:37;10.35;;;2.47;;
26578;SDS011;14227;47.674;19.320;2023-06-04T12:38:03;5.43;;;1.80;;
26578;SDS011;14227;47.674;19.320;2023-06-04T12:40:30;7.72;;;2.08;;
26578;SDS011;14227;47.674;19.320;2023-06-04T12:42:55;37.35;;;3.72;;
26578;SDS011;14227;47.674;19.320;2023-06-04T12:45:21;2.17;;;1.92;;
26578;SDS011;14227;47.674;19.320;2023-06-04T12:47:47;8.93;;;2.47;;
26578;SDS011;14227;47.674;19.320;2023-06-04T12:50:13;6.07;;;2.42;;
26578;SDS011;14227;47.674;19.320;2023-06-04T12:52:38;18.30;;;3.10;;
26578;SDS011;14227;47.674;19.320;2023-06-04T12:55:04;2.85;;;1.98;;
26578;SDS011;14227;47.674;19.320;2023-06-04T12:57:30;8.65;;;2.17;;
26578;SDS011;14227;47.674;19.320;2023-06-04T12:59:56;3.92;;;1.80;;
26578;SDS011;14227;47.674;19.320;2023-06-04T13:02:22;10.73;;;2.30;;
26578;SDS011;14227;47.674;19.320;2023-06-04T13:04:48;7.85;;;2.30;;
26578;SDS011;14227;47.674;19.320;2023-06-04T13:07:18;4.65;;;2.33;;
26578;SDS011;14227;47.674;19.320;2023-06-04T13:09:43;5.32;;;2.53;;
26578;SDS011;14227;47.674;19.320;2023-06-04T13:12:09;5.38;;;2.25;;
26578;SDS011;14227;47.674;19.320;2023-06-04T13:14:35;7.70;;;2.28;;
26578;SDS011;14227;47.674;19.320;2023-06-04T13:17:01;6.38;;;2.22;;
26578;SDS011;14227;47.674;19.320;2023-06-04T13:19:26;5.70;;;2.42;;
26578;SDS011;14227;47.674;19.320;2023-06-04T13:21:52;7.40;;;2.05;;
26578;SDS011;14227;47.674;19.320;2023-06-04T13:24:18;20.88;;;3.83;;
26578;SDS011;14227;47.674;19.320;2023-06-04T13:26:43;10.88;;;2.38;;
26578;SDS011;14227;47.674;19.320;2023-06-04T13:29:09;10.32;;;2.28;;
26578;SDS011;14227;47.674;19.320;2023-06-04T13:31:35;9.13;;;2.70;;
26578;SDS011;14227;47.674;19.320;2023-06-04T13:34:01;3.67;;;2.30;;
26578;SDS011;14227;47.674;19.320;2023-06-04T13:36:26;2.90;;;2.00;;
26578;SDS011;14227;47.674;19.320;2023-06-04T13:38:53;5.07;;;2.20;;
26578;SDS011;14227;47.674;19.320;2023-06-04T13:41:19;9.60;;;2.53;;
26578;SDS011;14227;47.674;19.320;2023-06-04T13:43:46;4.82;;;2.08;;
26578;SDS011;14227;47.674;19.320;2023-06-04T13:46:11;8.98;;;2.33;;
26578;SDS011;14227;47.674;19.320;2023-06-04T13:48:37;9.52;;;2.80;;
26578;SDS011;14227;47.674;19.320;2023-06-04T13:51:03;13.35;;;2.55;;
26578;SDS011;14227;47.674;19.320;2023-06-04T13:53:28;7.10;;;2.55;;
26578;SDS011;14227;47.674;19.320;2023-06-04T13:55:54;9.85;;;2.58;;
26578;SDS011;14227;47.674;19.320;2023-06-04T13:58:23;7.03;;;2.63;;
26578;SDS011;14227;47.674;19.320;2023-06-04T14:00:52;8.68;;;2.97;;
26578;SDS011;14227;47.674;19.320;2023-06-04T14:03:18;7.68;;;2.55;;
26578;SDS011;14227;47.674;19.320;2023-06-04T14:05:44;7.75;;;2.58;;
26578;SDS011;14227;47.674;19.320;2023-06-04T14:08:09;6.70;;;2.50;;
26578;SDS011;14227;47.674;19.320;2023-06-04T14:10:37;8.07;;;2.30;;
26578;SDS011;14227;47.674;19.320;2023-06-04T14:13:06;7.28;;;2.38;;
26578;SDS011;14227;47.674;19.320;2023-06-04T14:15:32;9.07;;;2.88;;
26578;SDS011;14227;47.674;19.320;2023-06-04T14:17:58;5.38;;;2.33;;
26578;SDS011;14227;47.674;19.320;2023-06-04T14:20:25;5.68;;;2.50;;
26578;SDS011;14227;47.674;19.320;2023-06-04T14:22:50;11.52;;;2.50;;
26578;SDS011;14227;47.674;19.320;2023-06-04T14:25:16;7.40;;;2.40;;
26578;SDS011;14227;47.674;19.320;2023-06-04T14:27:42;4.15;;;2.35;;
26578;SDS011;14227;47.674;19.320;2023-06-04T14:30:08;6.22;;;2.20;;
26578;SDS011;14227;47.674;19.320;2023-06-04T14:32:35;5.85;;;2.13;;